Main page
METAR-TAF:

METAR-TAF

Airports :

Nogales International Airport

Nogales, Arizona, United States

latitude: 31-25-15N, longitude: 110-50-45W, elevation: 1198 m

Current weather observation

The report was made 27 minutes ago, at 02:54 UTC
Calm wind
Temperature 13°C
Humidity 54%
Pressure 1021 hPa
Visibility: 16.1 km
Clear sky

METAR: KOLS 010254Z AUTO 00000KT 10SM CLR 13/04 A3014 RMK AO2 SLP180 T01330039 53009

Time: 20:21 (03:21 UTC)

Forecast

The report was made 4 hours and 1 minutes ago, at 23:20 UTC
Forecast valid from 01 at 00 UTC to 01 at 24 UTC
Wind 7 kt from the West/Northwest
Visibility: 10 km
Few clouds at a height of 5000 ft
From 01 at 0200 UTC
Wind 3 kt from variable directions
Visibility: 10 km
Clear sky
From 01 at 1800 UTC
Wind 7 kt from the Southwest
Visibility: 10 km
Clear sky

TAF: KOLS 292320Z 0100/0124 30007KT P6SM FEW050 FM010200 VRB03KT P6SM SKC FM011800 23007KT P6SM SKC

Weather observations and forecasts of more than 4000 airports (METAR and TAF reports).

The available stations are represented by yellow and red dots on the map.

Hover mouse over dot to see the name of the station.

Then click to see weather observations and forecasts.

To change the map : click on the green buttons with a black cross to zoom in, on the green button with a dash to zoom out, or on the green arrows for adjacent maps.


METAR-TAF: